Mount Sterling, Missouri
Current Conditions -  °F | °C
As of 2:21 AM on Saturday 20 Dec 2014 (Local Time) from KVIH Reporting Station
Haze Haze  
Wind Chill: -1°   Ceiling: 400
Heat Index:   Visibility: 4mi
Dew Point:   Wind: 5mph
Humidity: 92%   Direction: 140°SE
Pressure: 30.19"   Gusts: NA
Location:  38.47°N, 91.63°W
Report Text: KVIH 200821Z AUTO 14004KT 4SM BR OVC004 01/00 A3019 RMK AO2 T00110000
Loading
Personal Weather Stations






























Interactive Weather Map New forecast layout! Learn more

10-Day Weather Forecast

Advertisements
Track Severe Weather on mobile